Portada
METAR-TAF:

METAR-TAF

Aeropuertos :

Bad Vöslau, Austria

latitud: 47-57-52N, longitud: 016-15-34E, altitud: 233 m

Observación

El informe se hizo hace 13 horas y 19 minutos, a las 18:00 UTC
Viento 15 kt del sur-sureste
Temperatura 24°C
Humedad 50%
Presión

METAR: LOAV 061800Z 16015KT 40KM FEW040CU 24/13

Hora: 09:19 (07:19 UTC)

Pronóstico

El informe se hizo hace 19 horas y 54 minutos, a las 11:25 UTC
Pronóstico válido del 06 a las 12 UTC al 06 a las 21 UTC
Viento 12 kt del sureste
Visibilidad 10 km o más
Escasas nubes a una altura de 4000 ft
Temporalmente
del 06 a las 12 UTC al 06 a las 16 UTC
Viento 15 kt del sur con ráfagas de 25 kt
Temporalmente
del 06 a las 15 UTC al 06 a las 20 UTC
Escasas nubes a una altura de 5000 ft, Cumulonimbus.

TAF: LOAV 061125Z 0612/0621 14012KT 9999 FEW040 TEMPO 0612/0616 17015G25KT TEMPO 0615/0620 FEW050CB

Observaciones y pronósticos meteorológicos de más de 4000 aeropuertos (mensajes METAR y TAF).

Los puntos amarillos y rojos representan las estaciones disponibles.

Ponga el ratón en el punto deseado para ver el nombre de la estación.

Haga clic para ver las observaciones y los pronósticos meteorológicos.

Para cambiar el mapa : haga clic en los botones verdes con una cruz de color negro para hacer un zoom, en el botón verde con un guión para alejar o en las flechas verdes para mapas adyacentes.


METAR-TAF: